sensor_id;sensor_type;location;lat;lon;timestamp;pressure;altitude;pressure_sealevel;temperature;humidity
9695;BME280;4690;52.422;13.486;2023-04-01T00:04:24;99396.19;;;11.03;96.59
9695;BME280;4690;52.422;13.486;2023-04-01T00:06:50;99398.41;;;11.06;96.53
9695;BME280;4690;52.422;13.486;2023-04-01T00:09:17;99398.16;;;11.08;96.40
9695;BME280;4690;52.422;13.486;2023-04-01T00:11:43;99397.88;;;11.09;96.54
9695;BME280;4690;52.422;13.486;2023-04-01T00:14:11;99399.81;;;11.09;96.44
9695;BME280;4690;52.422;13.486;2023-04-01T00:16:37;99396.00;;;11.10;96.30
9695;BME280;4690;52.422;13.486;2023-04-01T00:19:03;99399.75;;;11.04;96.27
9695;BME280;4690;52.422;13.486;2023-04-01T00:21:29;99395.94;;;11.05;96.52
9695;BME280;4690;52.422;13.486;2023-04-01T00:23:55;99399.75;;;11.04;96.46
9695;BME280;4690;52.422;13.486;2023-04-01T00:26:21;99395.94;;;11.05;96.39
9695;BME280;4690;52.422;13.486;2023-04-01T00:28:48;99396.72;;;11.00;96.51
9695;BME280;4690;52.422;13.486;2023-04-01T00:31:14;99397.25;;;10.97;96.44
9695;BME280;4690;52.422;13.486;2023-04-01T00:33:41;99397.53;;;10.95;96.42
9695;BME280;4690;52.422;13.486;2023-04-01T00:36:16;99394.75;;;10.90;96.31
9695;BME280;4690;52.422;13.486;2023-04-01T00:38:43;99401.88;;;10.91;96.57
9695;BME280;4690;52.422;13.486;2023-04-01T00:41:10;99398.88;;;10.93;96.37
9695;BME280;4690;52.422;13.486;2023-04-01T00:43:43;99398.56;;;10.89;96.45
9695;BME280;4690;52.422;13.486;2023-04-01T00:46:09;99395.75;;;10.79;96.94
9695;BME280;4690;52.422;13.486;2023-04-01T00:48:40;99403.41;;;10.77;97.26
9695;BME280;4690;52.422;13.486;2023-04-01T00:51:13;99404.81;;;10.80;97.38
9695;BME280;4690;52.422;13.486;2023-04-01T00:53:45;99404.84;;;10.85;96.98
9695;BME280;4690;52.422;13.486;2023-04-01T00:56:27;99405.91;;;10.84;96.94
9695;BME280;4690;52.422;13.486;2023-04-01T00:59:08;99398.78;;;10.83;97.22
9695;BME280;4690;52.422;13.486;2023-04-01T01:01:36;99403.94;;;10.74;96.98
9695;BME280;4690;52.422;13.486;2023-04-01T01:04:03;99401.44;;;10.72;97.24
9695;BME280;4690;52.422;13.486;2023-04-01T01:10:18;99400.16;;;10.53;98.33
9695;BME280;4690;52.422;13.486;2023-04-01T01:15:44;99402.16;;;10.58;98.96
9695;BME280;4690;52.422;13.486;2023-04-01T01:18:27;99406.63;;;10.69;98.66
9695;BME280;4690;52.422;13.486;2023-04-01T01:21:27;99403.06;;;10.68;98.40
9695;BME280;4690;52.422;13.486;2023-04-01T01:26:45;99408.44;;;10.58;98.77
9695;BME280;4690;52.422;13.486;2023-04-01T01:33:05;99414.13;;;10.79;98.57
9695;BME280;4690;52.422;13.486;2023-04-01T01:35:55;99407.03;;;10.83;98.16
9695;BME280;4690;52.422;13.486;2023-04-01T01:38:27;99415.53;;;10.86;97.93
9695;BME280;4690;52.422;13.486;2023-04-01T01:40:57;99407.84;;;10.83;97.74
9695;BME280;4690;52.422;13.486;2023-04-01T01:43:36;99407.50;;;10.74;98.14
9695;BME280;4690;52.422;13.486;2023-04-01T01:46:10;99401.19;;;10.74;98.44
9695;BME280;4690;52.422;13.486;2023-04-01T01:48:38;99411.69;;;10.82;98.59
9695;BME280;4690;52.422;13.486;2023-04-01T01:51:07;99407.63;;;10.90;98.15
9695;BME280;4690;52.422;13.486;2023-04-01T01:53:33;99407.63;;;10.90;97.91
9695;BME280;4690;52.422;13.486;2023-04-01T01:55:59;99417.44;;;10.86;98.42
9695;BME280;4690;52.422;13.486;2023-04-01T01:58:42;99415.00;;;10.89;97.95
9695;BME280;4690;52.422;13.486;2023-04-01T02:01:15;99412.31;;;10.94;97.89
9695;BME280;4690;52.422;13.486;2023-04-01T02:03:43;99412.94;;;11.02;98.11
9695;BME280;4690;52.422;13.486;2023-04-01T02:06:15;99415.72;;;11.07;97.63
9695;BME280;4690;52.422;13.486;2023-04-01T02:08:50;99414.34;;;11.09;97.16
9695;BME280;4690;52.422;13.486;2023-04-01T02:11:24;99417.66;;;11.11;97.15
9695;BME280;4690;52.422;13.486;2023-04-01T02:14:05;99414.66;;;11.13;97.17
9695;BME280;4690;52.422;13.486;2023-04-01T02:16:39;99415.47;;;11.13;97.16
9695;BME280;4690;52.422;13.486;2023-04-01T02:19:10;99414.38;;;11.14;97.53
9695;BME280;4690;52.422;13.486;2023-04-01T02:21:39;99414.38;;;11.14;97.16
9695;BME280;4690;52.422;13.486;2023-04-01T02:24:11;99416.81;;;11.11;97.16
9695;BME280;4690;52.422;13.486;2023-04-01T02:26:39;99420.97;;;11.13;97.14
9695;BME280;4690;52.422;13.486;2023-04-01T02:29:06;99417.13;;;11.14;97.28
9695;BME280;4690;52.422;13.486;2023-04-01T02:31:34;99412.47;;;11.15;96.89
9695;BME280;4690;52.422;13.486;2023-04-01T02:34:01;99418.22;;;11.13;97.18
9695;BME280;4690;52.422;13.486;2023-04-01T02:36:28;99420.44;;;11.16;96.74
9695;BME280;4690;52.422;13.486;2023-04-01T02:38:55;99425.38;;;11.19;97.06
9695;BME280;4690;52.422;13.486;2023-04-01T02:41:24;99430.88;;;11.19;96.80
9695;BME280;4690;52.422;13.486;2023-04-01T02:43:50;99420.72;;;11.20;96.98
9695;BME280;4690;52.422;13.486;2023-04-01T02:46:16;99430.63;;;11.21;96.93
9695;BME280;4690;52.422;13.486;2023-04-01T02:48:42;99424.59;;;11.24;96.83
9695;BME280;4690;52.422;13.486;2023-04-01T02:51:08;99430.13;;;11.29;96.66
9695;BME280;4690;52.422;13.486;2023-04-01T02:53:34;99434.50;;;11.30;96.59
9695;BME280;4690;52.422;13.486;2023-04-01T02:56:00;99436.44;;;11.30;96.57
9695;BME280;4690;52.422;13.486;2023-04-01T02:58:26;99443.56;;;11.31;96.37
9695;BME280;4690;52.422;13.486;2023-04-01T03:00:52;99444.38;;;11.31;96.49
9695;BME280;4690;52.422;13.486;2023-04-01T03:03:17;99435.34;;;11.31;96.37
9695;BME280;4690;52.422;13.486;2023-04-01T03:05:43;99440.56;;;11.32;96.19
9695;BME280;4690;52.422;13.486;2023-04-01T03:08:09;99438.91;;;11.31;96.24
9695;BME280;4690;52.422;13.486;2023-04-01T03:10:36;99436.69;;;11.28;96.15
9695;BME280;4690;52.422;13.486;2023-04-01T03:13:01;99436.13;;;11.26;96.40
9695;BME280;4690;52.422;13.486;2023-04-01T03:15:27;99438.56;;;11.22;96.16
9695;BME280;4690;52.422;13.486;2023-04-01T03:17:53;99448.72;;;11.22;96.53
9695;BME280;4690;52.422;13.486;2023-04-01T03:20:19;99443.22;;;11.22;96.68
9695;BME280;4690;52.422;13.486;2023-04-01T03:22:44;99443.19;;;11.17;96.53
9695;BME280;4690;52.422;13.486;2023-04-01T03:25:11;99446.47;;;11.14;96.64
9695;BME280;4690;52.422;13.486;2023-04-01T03:27:37;99442.63;;;11.15;96.80
9695;BME280;4690;52.422;13.486;2023-04-01T03:30:05;99452.00;;;11.19;96.66
9695;BME280;4690;52.422;13.486;2023-04-01T03:32:31;99448.97;;;11.20;96.58
9695;BME280;4690;52.422;13.486;2023-04-01T03:34:57;99452.28;;;11.22;96.62
9695;BME280;4690;52.422;13.486;2023-04-01T03:37:23;99452.03;;;11.24;96.52
9695;BME280;4690;52.422;13.486;2023-04-01T03:39:49;99451.47;;;11.22;96.57
9695;BME280;4690;52.422;13.486;2023-04-01T03:42:15;99452.81;;;11.19;96.50
9695;BME280;4690;52.422;13.486;2023-04-01T03:44:41;99463.81;;;11.25;96.77
9695;BME280;4690;52.422;13.486;2023-04-01T03:47:06;99464.13;;;11.28;96.58
9695;BME280;4690;52.422;13.486;2023-04-01T03:49:34;99473.44;;;11.27;96.33
9695;BME280;4690;52.422;13.486;2023-04-01T03:52:00;99471.00;;;11.31;96.10
9695;BME280;4690;52.422;13.486;2023-04-01T03:54:26;99465.78;;;11.29;96.14
9695;BME280;4690;52.422;13.486;2023-04-01T03:56:52;99477.28;;;11.31;96.02
9695;BME280;4690;52.422;13.486;2023-04-01T03:59:18;99475.94;;;11.34;96.26
9695;BME280;4690;52.422;13.486;2023-04-01T04:01:46;99472.94;;;11.35;96.11
9695;BME280;4690;52.422;13.486;2023-04-01T04:04:12;99476.50;;;11.36;96.09
9695;BME280;4690;52.422;13.486;2023-04-01T04:06:41;99481.19;;;11.35;96.07
9695;BME280;4690;52.422;13.486;2023-04-01T04:09:07;99480.91;;;11.37;96.07
9695;BME280;4690;52.422;13.486;2023-04-01T04:11:33;99482.56;;;11.38;96.12
9695;BME280;4690;52.422;13.486;2023-04-01T04:13:59;99482.28;;;11.39;95.82
9695;BME280;4690;52.422;13.486;2023-04-01T04:16:25;99483.13;;;11.40;95.96
9695;BME280;4690;52.422;13.486;2023-04-01T04:18:51;99485.03;;;11.39;95.73
9695;BME280;4690;52.422;13.486;2023-04-01T04:21:17;99496.53;;;11.36;95.79
9695;BME280;4690;52.422;13.486;2023-04-01T04:23:43;99499.84;;;11.38;95.80
9695;BME280;4690;52.422;13.486;2023-04-01T04:26:12;99501.50;;;11.39;95.88
9695;BME280;4690;52.422;13.486;2023-04-01T04:28:39;99496.84;;;11.40;95.91
9695;BME280;4690;52.422;13.486;2023-04-01T04:31:05;99497.09;;;11.38;95.79
9695;BME280;4690;52.422;13.486;2023-04-01T04:33:32;99504.25;;;11.39;95.85
9695;BME280;4690;52.422;13.486;2023-04-01T04:35:59;99502.06;;;11.41;95.85
9695;BME280;4690;52.422;13.486;2023-04-01T04:38:26;99499.03;;;11.38;95.83
9695;BME280;4690;52.422;13.486;2023-04-01T04:40:52;99506.97;;;11.39;95.69
9695;BME280;4690;52.422;13.486;2023-04-01T04:43:18;99507.50;;;11.36;95.98
9695;BME280;4690;52.422;13.486;2023-04-01T04:45:44;99505.25;;;11.28;95.87
9695;BME280;4690;52.422;13.486;2023-04-01T04:48:12;99512.03;;;11.20;96.62
9695;BME280;4690;52.422;13.486;2023-04-01T04:50:42;99514.47;;;11.17;96.99
9695;BME280;4690;52.422;13.486;2023-04-01T04:53:17;99504.13;;;11.24;96.88
9695;BME280;4690;52.422;13.486;2023-04-01T04:55:49;99510.69;;;11.23;96.40
9695;BME280;4690;52.422;13.486;2023-04-01T04:58:16;99509.63;;;11.24;96.25
9695;BME280;4690;52.422;13.486;2023-04-01T05:00:43;99513.75;;;11.27;96.57
9695;BME280;4690;52.422;13.486;2023-04-01T05:03:09;99512.09;;;11.26;96.47
9695;BME280;4690;52.422;13.486;2023-04-01T05:05:36;99519.78;;;11.29;96.54
9695;BME280;4690;52.422;13.486;2023-04-01T05:08:02;99515.66;;;11.26;96.26
9695;BME280;4690;52.422;13.486;2023-04-01T05:10:28;99513.75;;;11.27;96.23
9695;BME280;4690;52.422;13.486;2023-04-01T05:12:54;99520.63;;;11.29;96.46
9695;BME280;4690;52.422;13.486;2023-04-01T05:15:21;99518.19;;;11.33;96.65
9695;BME280;4690;52.422;13.486;2023-04-01T05:17:47;99525.84;;;11.31;96.29
9695;BME280;4690;52.422;13.486;2023-04-01T05:20:14;99521.69;;;11.28;96.30
9695;BME280;4690;52.422;13.486;2023-04-01T05:22:41;99527.72;;;11.25;96.50
9695;BME280;4690;52.422;13.486;2023-04-01T05:25:07;99524.63;;;11.16;97.00
9695;BME280;4690;52.422;13.486;2023-04-01T05:27:33;99524.31;;;11.13;97.23
9695;BME280;4690;52.422;13.486;2023-04-01T05:29:58;99521.94;;;11.21;97.38
9695;BME280;4690;52.422;13.486;2023-04-01T05:32:24;99526.41;;;11.33;97.02
9695;BME280;4690;52.422;13.486;2023-04-01T05:34:51;99532.78;;;11.38;96.80
9695;BME280;4690;52.422;13.486;2023-04-01T05:37:18;99525.94;;;11.41;96.63
9695;BME280;4690;52.422;13.486;2023-04-01T05:39:44;99534.38;;;11.34;96.44
9695;BME280;4690;52.422;13.486;2023-04-01T05:42:10;99536.56;;;11.32;96.89
9695;BME280;4690;52.422;13.486;2023-04-01T05:44:36;99539.84;;;11.34;97.04
9695;BME280;4690;52.422;13.486;2023-04-01T05:47:03;99534.41;;;11.39;96.90
9695;BME280;4690;52.422;13.486;2023-04-01T05:49:30;99543.75;;;11.38;96.88
9695;BME280;4690;52.422;13.486;2023-04-01T05:51:56;99539.91;;;11.39;96.64
9695;BME280;4690;52.422;13.486;2023-04-01T05:54:23;99548.06;;;11.34;96.82
9695;BME280;4690;52.422;13.486;2023-04-01T05:56:48;99547.31;;;11.39;96.92
9695;BME280;4690;52.422;13.486;2023-04-01T05:59:15;99546.00;;;11.47;96.65
9695;BME280;4690;52.422;13.486;2023-04-01T06:01:41;99552.56;;;11.45;96.55
9695;BME280;4690;52.422;13.486;2023-04-01T06:04:12;99557.50;;;11.43;96.59
9695;BME280;4690;52.422;13.486;2023-04-01T06:06:39;99558.91;;;11.46;96.51
9695;BME280;4690;52.422;13.486;2023-04-01T06:09:18;99562.13;;;11.43;96.74
9695;BME280;4690;52.422;13.486;2023-04-01T06:12:23;99564.34;;;11.41;96.73
9695;BME280;4690;52.422;13.486;2023-04-01T06:18:37;99566.25;;;11.40;97.21
9695;BME280;4690;52.422;13.486;2023-04-01T06:33:46;99590.44;;;11.49;97.21
9695;BME280;4690;52.422;13.486;2023-04-01T06:42:46;99586.69;;;11.60;96.92
9695;BME280;4690;52.422;13.486;2023-04-01T06:48:56;99587.66;;;11.76;96.63
9695;BME280;4690;52.422;13.486;2023-04-01T06:54:26;99591.22;;;11.76;96.92
9695;BME280;4690;52.422;13.486;2023-04-01T06:57:34;99592.34;;;11.80;96.74
9695;BME280;4690;52.422;13.486;2023-04-01T07:00:12;99590.72;;;11.84;96.57
9695;BME280;4690;52.422;13.486;2023-04-01T07:02:46;99590.22;;;11.87;96.60
9695;BME280;4690;52.422;13.486;2023-04-01T07:05:14;99592.78;;;11.99;96.60
9695;BME280;4690;52.422;13.486;2023-04-01T07:07:50;99595.22;;;11.96;96.67
9695;BME280;4690;52.422;13.486;2023-04-01T07:14:01;99599.75;;;12.17;96.75
9695;BME280;4690;52.422;13.486;2023-04-01T07:16:43;99595.41;;;12.26;96.49
9695;BME280;4690;52.422;13.486;2023-04-01T07:19:48;99600.09;;;12.26;96.09
9695;BME280;4690;52.422;13.486;2023-04-01T07:22:41;99598.16;;;12.26;95.58
9695;BME280;4690;52.422;13.486;2023-04-01T07:25:15;99603.16;;;12.34;96.06
9695;BME280;4690;52.422;13.486;2023-04-01T07:27:44;99608.97;;;12.43;95.93
9695;BME280;4690;52.422;13.486;2023-04-01T07:30:23;99613.16;;;12.61;96.12
9695;BME280;4690;52.422;13.486;2023-04-01T07:33:15;99606.09;;;12.81;95.91
9695;BME280;4690;52.422;13.486;2023-04-01T07:38:50;99612.78;;;13.20;95.23
9695;BME280;4690;52.422;13.486;2023-04-01T07:41:45;99610.97;;;13.47;95.22
9695;BME280;4690;52.422;13.486;2023-04-01T07:50:30;99612.25;;;14.31;93.04
9695;BME280;4690;52.422;13.486;2023-04-01T08:02:28;99615.78;;;14.62;90.14
9695;BME280;4690;52.422;13.486;2023-04-01T08:08:06;99623.69;;;14.84;89.08
9695;BME280;4690;52.422;13.486;2023-04-01T08:10:52;99623.63;;;14.94;88.40
9695;BME280;4690;52.422;13.486;2023-04-01T08:16:23;99625.78;;;15.08;88.55
9695;BME280;4690;52.422;13.486;2023-04-01T08:19:44;99627.09;;;15.20;88.65
9695;BME280;4690;52.422;13.486;2023-04-01T08:22:11;99632.34;;;15.17;87.54
9695;BME280;4690;52.422;13.486;2023-04-01T08:24:46;99627.91;;;15.21;87.95
9695;BME280;4690;52.422;13.486;2023-04-01T08:27:44;99634.00;;;15.18;88.06
9695;BME280;4690;52.422;13.486;2023-04-01T08:30:27;99631.50;;;15.16;87.57
9695;BME280;4690;52.422;13.486;2023-04-01T08:33:02;99629.84;;;15.20;87.80
9695;BME280;4690;52.422;13.486;2023-04-01T08:35:48;99637.84;;;15.17;87.76
9695;BME280;4690;52.422;13.486;2023-04-01T08:38:33;99640.63;;;15.12;87.33
9695;BME280;4690;52.422;13.486;2023-04-01T08:53:59;99648.66;;;14.07;86.42
9695;BME280;4690;52.422;13.486;2023-04-01T08:56:57;99650.63;;;13.86;87.78
9695;BME280;4690;52.422;13.486;2023-04-01T09:05:52;99664.91;;;12.74;90.96
9695;BME280;4690;52.422;13.486;2023-04-01T09:12:12;99681.44;;;11.67;94.73
9695;BME280;4690;52.422;13.486;2023-04-01T09:40:54;99713.56;;;10.74;100.00
9695;BME280;4690;52.422;13.486;2023-04-01T09:44:00;99711.22;;;10.83;100.00
9695;BME280;4690;52.422;13.486;2023-04-01T09:47:02;99705.44;;;11.01;100.00
9695;BME280;4690;52.422;13.486;2023-04-01T09:52:40;99723.66;;;11.12;100.00
9695;BME280;4690;52.422;13.486;2023-04-01T09:55:42;99726.25;;;11.02;100.00
9695;BME280;4690;52.422;13.486;2023-04-01T10:01:31;99728.63;;;10.93;100.00
9695;BME280;4690;52.422;13.486;2023-04-01T10:07:13;99734.19;;;10.98;100.00
9695;BME280;4690;52.422;13.486;2023-04-01T10:27:36;99746.56;;;11.01;100.00
9695;BME280;4690;52.422;13.486;2023-04-01T10:33:38;99750.03;;;10.96;100.00
9695;BME280;4690;52.422;13.486;2023-04-01T11:04:50;99771.00;;;10.86;100.00
9695;BME280;4690;52.422;13.486;2023-04-01T11:14:22;99780.59;;;10.66;100.00
9695;BME280;4690;52.422;13.486;2023-04-01T11:20:13;99782.22;;;10.84;100.00
9695;BME280;4690;52.422;13.486;2023-04-01T11:25:57;99792.53;;;10.77;100.00
9695;BME280;4690;52.422;13.486;2023-04-01T11:31:40;99798.75;;;10.72;100.00
9695;BME280;4690;52.422;13.486;2023-04-01T11:34:54;99797.09;;;10.71;100.00
9695;BME280;4690;52.422;13.486;2023-04-01T11:43:47;99811.78;;;10.82;100.00
9695;BME280;4690;52.422;13.486;2023-04-01T11:46:42;99816.69;;;10.80;100.00
9695;BME280;4690;52.422;13.486;2023-04-01T11:50:03;99819.84;;;10.72;99.60
9695;BME280;4690;52.422;13.486;2023-04-01T11:55:54;99826.25;;;10.61;99.95
9695;BME280;4690;52.422;13.486;2023-04-01T11:58:42;99832.41;;;10.34;100.00
9695;BME280;4690;52.422;13.486;2023-04-01T12:01:14;99837.66;;;10.24;100.00
9695;BME280;4690;52.422;13.486;2023-04-01T12:13:23;99859.31;;;10.08;100.00
9695;BME280;4690;52.422;13.486;2023-04-01T12:16:21;99852.63;;;10.04;100.00
9695;BME280;4690;52.422;13.486;2023-04-01T12:28:19;99860.28;;;10.02;99.92
9695;BME280;4690;52.422;13.486;2023-04-01T12:31:19;99864.06;;;10.01;100.00
9695;BME280;4690;52.422;13.486;2023-04-01T12:34:13;99870.66;;;10.00;100.00
9695;BME280;4690;52.422;13.486;2023-04-01T12:45:37;99885.88;;;9.56;100.00
9695;BME280;4690;52.422;13.486;2023-04-01T12:54:17;99893.19;;;9.38;100.00
9695;BME280;4690;52.422;13.486;2023-04-01T13:02:31;99901.97;;;9.52;100.00
9695;BME280;4690;52.422;13.486;2023-04-01T13:29:41;99942.25;;;9.69;100.00
9695;BME280;4690;52.422;13.486;2023-04-01T13:38:41;99951.66;;;9.61;100.00
9695;BME280;4690;52.422;13.486;2023-04-01T13:43:50;99954.75;;;9.17;100.00
9695;BME280;4690;52.422;13.486;2023-04-01T13:49:20;99960.81;;;9.43;100.00
9695;BME280;4690;52.422;13.486;2023-04-01T14:00:39;99969.50;;;9.28;100.00
9695;BME280;4690;52.422;13.486;2023-04-01T14:09:51;99982.56;;;9.14;100.00
9695;BME280;4690;52.422;13.486;2023-04-01T14:13:05;99982.09;;;9.17;100.00
9695;BME280;4690;52.422;13.486;2023-04-01T14:16:04;99998.53;;;9.29;100.00
9695;BME280;4690;52.422;13.486;2023-04-01T14:22:13;100002.53;;;9.15;100.00
9695;BME280;4690;52.422;13.486;2023-04-01T14:24:59;99997.91;;;9.15;100.00
9695;BME280;4690;52.422;13.486;2023-04-01T14:30:32;100017.53;;;9.36;100.00
9695;BME280;4690;52.422;13.486;2023-04-01T14:33:37;100013.22;;;9.16;100.00
9695;BME280;4690;52.422;13.486;2023-04-01T14:40:04;100018.28;;;8.89;100.00
9695;BME280;4690;52.422;13.486;2023-04-01T14:42:45;100026.72;;;8.88;100.00
9695;BME280;4690;52.422;13.486;2023-04-01T14:48:49;100031.28;;;9.06;100.00
9695;BME280;4690;52.422;13.486;2023-04-01T14:51:23;100026.75;;;9.00;100.00
9695;BME280;4690;52.422;13.486;2023-04-01T14:54:14;100046.56;;;8.95;100.00
9695;BME280;4690;52.422;13.486;2023-04-01T14:56:51;100038.19;;;8.78;100.00
9695;BME280;4690;52.422;13.486;2023-04-01T14:59:29;100051.88;;;8.78;100.00
9695;BME280;4690;52.422;13.486;2023-04-01T15:02:28;100047.94;;;8.74;100.00
9695;BME280;4690;52.422;13.486;2023-04-01T15:06:08;100051.97;;;8.71;100.00
9695;BME280;4690;52.422;13.486;2023-04-01T15:08:29;100058.22;;;8.60;100.00
9695;BME280;4690;52.422;13.486;2023-04-01T15:17:22;100063.78;;;8.53;100.00
9695;BME280;4690;52.422;13.486;2023-04-01T15:31:17;100084.41;;;8.31;100.00
9695;BME280;4690;52.422;13.486;2023-04-01T15:36:54;100078.84;;;8.38;100.00
9695;BME280;4690;52.422;13.486;2023-04-01T15:54:05;100115.94;;;8.27;100.00
9695;BME280;4690;52.422;13.486;2023-04-01T16:00:00;100124.34;;;8.07;100.00
9695;BME280;4690;52.422;13.486;2023-04-01T16:12:11;100138.28;;;7.74;100.00
9695;BME280;4690;52.422;13.486;2023-04-01T16:20:49;100156.78;;;7.72;100.00
9695;BME280;4690;52.422;13.486;2023-04-01T16:23:36;100155.09;;;7.71;100.00
9695;BME280;4690;52.422;13.486;2023-04-01T16:31:53;100174.09;;;7.84;100.00
9695;BME280;4690;52.422;13.486;2023-04-01T16:34:47;100174.00;;;7.66;100.00
9695;BME280;4690;52.422;13.486;2023-04-01T16:38:13;100175.91;;;7.65;100.00
9695;BME280;4690;52.422;13.486;2023-04-01T16:40:35;100176.53;;;7.67;100.00
9695;BME280;4690;52.422;13.486;2023-04-01T16:43:14;100188.72;;;7.64;100.00
9695;BME280;4690;52.422;13.486;2023-04-01T16:45:54;100190.06;;;7.49;100.00
9695;BME280;4690;52.422;13.486;2023-04-01T16:48:49;100195.28;;;7.25;100.00
9695;BME280;4690;52.422;13.486;2023-04-01T16:51:18;100193.88;;;7.48;100.00
9695;BME280;4690;52.422;13.486;2023-04-01T16:54:02;100200.28;;;7.60;100.00
9695;BME280;4690;52.422;13.486;2023-04-01T16:57:03;100206.41;;;7.55;100.00
9695;BME280;4690;52.422;13.486;2023-04-01T16:59:43;100211.59;;;7.63;100.00
9695;BME280;4690;52.422;13.486;2023-04-01T17:02:15;100223.53;;;7.31;100.00
9695;BME280;4690;52.422;13.486;2023-04-01T17:07:40;100236.19;;;7.12;100.00
9695;BME280;4690;52.422;13.486;2023-04-01T17:16:25;100251.59;;;6.93;100.00
9695;BME280;4690;52.422;13.486;2023-04-01T17:19:37;100262.03;;;7.03;100.00
9695;BME280;4690;52.422;13.486;2023-04-01T17:22:37;100260.97;;;7.04;100.00
9695;BME280;4690;52.422;13.486;2023-04-01T17:45:45;100307.38;;;6.77;100.00
9695;BME280;4690;52.422;13.486;2023-04-01T17:51:12;100311.97;;;6.77;100.00
9695;BME280;4690;52.422;13.486;2023-04-01T18:00:23;100329.81;;;6.39;100.00
9695;BME280;4690;52.422;13.486;2023-04-01T18:06:14;100348.00;;;6.59;100.00
9695;BME280;4690;52.422;13.486;2023-04-01T18:20:54;100371.69;;;6.51;100.00
9695;BME280;4690;52.422;13.486;2023-04-01T18:23:39;100371.03;;;6.36;100.00
9695;BME280;4690;52.422;13.486;2023-04-01T18:26:20;100385.09;;;6.46;100.00
9695;BME280;4690;52.422;13.486;2023-04-01T18:28:59;100381.72;;;6.38;100.00
9695;BME280;4690;52.422;13.486;2023-04-01T18:31:36;100388.44;;;6.28;100.00
9695;BME280;4690;52.422;13.486;2023-04-01T18:37:30;100408.31;;;6.22;100.00
9695;BME280;4690;52.422;13.486;2023-04-01T18:41:00;100403.47;;;6.24;100.00
9695;BME280;4690;52.422;13.486;2023-04-01T18:46:20;100425.00;;;6.06;100.00
9695;BME280;4690;52.422;13.486;2023-04-01T18:49:48;100438.81;;;6.04;100.00
9695;BME280;4690;52.422;13.486;2023-04-01T18:52:41;100434.97;;;5.92;100.00
9695;BME280;4690;52.422;13.486;2023-04-01T18:57:46;100451.88;;;5.88;100.00
9695;BME280;4690;52.422;13.486;2023-04-01T19:00:28;100460.69;;;5.83;100.00
9695;BME280;4690;52.422;13.486;2023-04-01T19:03:26;100453.81;;;5.94;100.00
9695;BME280;4690;52.422;13.486;2023-04-01T19:06:06;100467.19;;;5.89;100.00
9695;BME280;4690;52.422;13.486;2023-04-01T19:08:40;100465.72;;;5.93;100.00
9695;BME280;4690;52.422;13.486;2023-04-01T19:11:10;100459.72;;;6.04;100.00
9695;BME280;4690;52.422;13.486;2023-04-01T19:17:07;100475.53;;;5.87;100.00
9695;BME280;4690;52.422;13.486;2023-04-01T19:25:58;100485.94;;;5.77;100.00
9695;BME280;4690;52.422;13.486;2023-04-01T19:28:53;100486.75;;;5.71;100.00
9695;BME280;4690;52.422;13.486;2023-04-01T19:34:35;100487.53;;;5.58;100.00
9695;BME280;4690;52.422;13.486;2023-04-01T19:37:39;100502.63;;;5.67;100.00
9695;BME280;4690;52.422;13.486;2023-04-01T19:45:46;100514.88;;;5.50;100.00
9695;BME280;4690;52.422;13.486;2023-04-01T19:51:49;100526.50;;;5.72;100.00
9695;BME280;4690;52.422;13.486;2023-04-01T19:54:39;100526.88;;;5.69;100.00
9695;BME280;4690;52.422;13.486;2023-04-01T19:57:41;100543.03;;;5.42;100.00
9695;BME280;4690;52.422;13.486;2023-04-01T20:00:38;100529.16;;;5.30;100.00
9695;BME280;4690;52.422;13.486;2023-04-01T20:03:41;100546.81;;;5.20;100.00
9695;BME280;4690;52.422;13.486;2023-04-01T20:12:28;100574.13;;;5.11;100.00
9695;BME280;4690;52.422;13.486;2023-04-01T20:15:04;100577.34;;;5.22;100.00
9695;BME280;4690;52.422;13.486;2023-04-01T20:17:43;100585.06;;;5.18;100.00
9695;BME280;4690;52.422;13.486;2023-04-01T20:20:15;100581.63;;;5.09;100.00
9695;BME280;4690;52.422;13.486;2023-04-01T20:25:32;100599.34;;;5.27;100.00
9695;BME280;4690;52.422;13.486;2023-04-01T20:40:26;100629.38;;;5.19;100.00
9695;BME280;4690;52.422;13.486;2023-04-01T20:46:23;100634.09;;;5.10;100.00
9695;BME280;4690;52.422;13.486;2023-04-01T20:49:39;100632.22;;;5.10;100.00
9695;BME280;4690;52.422;13.486;2023-04-01T20:57:39;100639.63;;;4.80;100.00
9695;BME280;4690;52.422;13.486;2023-04-01T21:00:45;100639.63;;;4.80;100.00
9695;BME280;4690;52.422;13.486;2023-04-01T21:11:49;100664.47;;;4.62;99.94
9695;BME280;4690;52.422;13.486;2023-04-01T21:31:57;100702.84;;;4.59;100.00
9695;BME280;4690;52.422;13.486;2023-04-01T21:34:42;100709.00;;;4.53;100.00
9695;BME280;4690;52.422;13.486;2023-04-01T21:54:25;100729.97;;;4.59;99.97
9695;BME280;4690;52.422;13.486;2023-04-01T22:00:18;100746.34;;;4.51;100.00
9695;BME280;4690;52.422;13.486;2023-04-01T22:11:07;100762.63;;;4.66;100.00
9695;BME280;4690;52.422;13.486;2023-04-01T22:13:54;100765.97;;;4.53;100.00
9695;BME280;4690;52.422;13.486;2023-04-01T22:19:04;100775.00;;;4.54;99.97
9695;BME280;4690;52.422;13.486;2023-04-01T22:21:43;100776.22;;;4.51;100.00
9695;BME280;4690;52.422;13.486;2023-04-01T22:24:51;100780.97;;;4.49;100.00
9695;BME280;4690;52.422;13.486;2023-04-01T22:28:03;100784.91;;;4.46;99.78
9695;BME280;4690;52.422;13.486;2023-04-01T22:31:00;100781.25;;;4.39;99.50
9695;BME280;4690;52.422;13.486;2023-04-01T22:33:51;100778.34;;;4.41;99.58
9695;BME280;4690;52.422;13.486;2023-04-01T22:39:23;100790.78;;;4.35;100.00
9695;BME280;4690;52.422;13.486;2023-04-01T22:44:59;100797.25;;;4.34;99.36
9695;BME280;4690;52.422;13.486;2023-04-01T22:50:33;100803.56;;;4.26;100.00
9695;BME280;4690;52.422;13.486;2023-04-01T22:55:38;100811.72;;;4.26;98.88
9695;BME280;4690;52.422;13.486;2023-04-01T22:58:30;100819.84;;;4.26;98.66
9695;BME280;4690;52.422;13.486;2023-04-01T23:01:06;100823.00;;;4.15;98.45
9695;BME280;4690;52.422;13.486;2023-04-01T23:03:38;100821.53;;;4.27;98.42
9695;BME280;4690;52.422;13.486;2023-04-01T23:06:12;100819.03;;;4.26;98.08
9695;BME280;4690;52.422;13.486;2023-04-01T23:19:46;100845.53;;;4.16;98.49
9695;BME280;4690;52.422;13.486;2023-04-01T23:22:33;100854.03;;;4.13;97.96
9695;BME280;4690;52.422;13.486;2023-04-01T23:25:52;100857.72;;;3.97;98.27